Airfield :
LOGIN :

Register | Disclaimer

   EN    FR    IT 

 










Legend :    VFR   Marginal VFR   IFR   Intensive IFR   Very Intensive IFR
Visi :
Ceiling :
>= 8 km
>= 3000ft
5 to 8 km
1000 to 3000 ft
1500m to 5 km
500 to 1000 ft
800 to 1500m
200 to 500 ft
< 800m
< 200 ft
Symbols :   Thunderstorms  Fog  Heavy snow  Heavy precipitations  Wind > 20 kt
SIGMETs :     Misc.  Thunderstorms  Icing  Turbulence  Mountain Waves  Volcanic Ashes







- Airport Elevation : 489 ft
- IATA code : GDN


EPGD - Gdansk

CURRENT METAR :
  • 142130Z 28006KT 9999 OVC040 08/07 Q1028

EXPIRED METARs :
  • 142100Z 29005KT 9999 OVC038 08/07 Q1028
  • 142030Z 28006KT 9999 BKN036 08/07 Q1028
  • 142000Z 26005KT 9999 SCT013 BKN036 08/07 Q1028
  • 141930Z 26003KT 210V290 9999 FEW013 BKN033 08/06 Q1028
  • 141900Z 27004KT 9999 FEW012 OVC035 08/06 Q1028

TAF TAF EPGD
Valid from the 14 at 18:00 until the 15 at 18:00 UTC


141730Z 1418/1518 28005KT 9999 BKN030
BECMG 1420/1423 3000 BR BKN012
PROB40 1500/1506 0500 FG OVC002
BECMG 1507/1510 7000
BECMG 1516/1518 3000 BR
No reported NOTAMs for that airfield.



MET'MAP, your aeronautical weather chart ! - Copyright ORBIFLY December 2007 - Disclaimer

ORBIFLY MET'MAP TEAM :

Programming & Development : Alexandra Zaïnal
Concept & Development : Baudouin d'Aumeries
Co-Development & Prog : Marc-Olivier Méhu
Technical & hardware support : Manuel Goepfert

Contact : metmap@orbifly.com




SOURCES & CREDITS :

   NOAA